createdAt,value
2023-01-08T00:01:25.433Z,100757.78
2023-01-08T00:04:25.461Z,100747.59
2023-01-08T00:07:25.431Z,100743.25
2023-01-08T00:10:25.497Z,100744.78
2023-01-08T00:13:25.403Z,100748.91
2023-01-08T00:16:28.479Z,100744.50
2023-01-08T00:19:28.460Z,100720.81
2023-01-08T00:22:28.467Z,100749.75
2023-01-08T00:25:28.471Z,100738.81
2023-01-08T00:28:28.425Z,100733.72
2023-01-08T00:31:28.461Z,100730.38
2023-01-08T00:34:28.414Z,100735.41
2023-01-08T00:37:28.458Z,100731.31
2023-01-08T00:40:28.445Z,100737.44
2023-01-08T00:43:28.454Z,100724.59
2023-01-08T00:46:28.442Z,100735.03
2023-01-08T00:49:29.414Z,100729.97
2023-01-08T00:52:29.453Z,100728.34
2023-01-08T00:55:29.426Z,100731.00
2023-01-08T00:58:29.449Z,100724.13
2023-01-08T01:01:29.573Z,100713.09
2023-01-08T01:04:29.415Z,100722.56
2023-01-08T01:07:29.469Z,100723.50
2023-01-08T01:10:30.425Z,100727.00
2023-01-08T01:13:30.427Z,100710.84
2023-01-08T01:16:30.541Z,100722.66
2023-01-08T01:19:30.428Z,100714.19
2023-01-08T01:22:30.430Z,100713.34
2023-01-08T01:25:30.433Z,100717.81
2023-01-08T01:28:30.457Z,100709.19
2023-01-08T01:31:30.430Z,100711.09
2023-01-08T01:34:30.450Z,100703.44
2023-01-08T01:37:30.429Z,100718.09
2023-01-08T01:40:30.457Z,100712.28
2023-01-08T01:43:49.418Z,100709.66
2023-01-08T01:46:49.432Z,100704.56
2023-01-08T01:49:49.439Z,100694.31
2023-01-08T01:52:53.461Z,100698.78
2023-01-08T01:55:56.456Z,100694.53
2023-01-08T01:58:56.432Z,100696.38
2023-01-08T02:01:56.571Z,100677.78
2023-01-08T02:04:56.409Z,100672.75
2023-01-08T02:08:20.416Z,100687.22
2023-01-08T02:11:22.401Z,100691.59
2023-01-08T02:14:31.410Z,100691.69
2023-01-08T02:17:38.407Z,100677.37
2023-01-08T02:20:57.427Z,100687.66
2023-01-08T02:24:03.439Z,100693.75
2023-01-08T02:27:06.455Z,100691.25
2023-01-08T02:30:07.415Z,100683.81
2023-01-08T02:33:07.432Z,100688.81
2023-01-08T02:36:45.452Z,100692.19
2023-01-08T02:40:04.450Z,100696.28
2023-01-08T02:43:24.386Z,100687.53
2023-01-08T02:46:27.469Z,100685.72
2023-01-08T02:49:27.402Z,100666.91
2023-01-08T02:52:28.419Z,100683.12
2023-01-08T02:55:29.455Z,100681.53
2023-01-08T02:58:29.439Z,100674.56
2023-01-08T03:01:30.506Z,100672.00
2023-01-08T03:04:35.473Z,100672.81
2023-01-08T03:07:35.422Z,100664.16
2023-01-08T03:10:36.393Z,100669.31
2023-01-08T03:13:44.414Z,100660.69
2023-01-08T03:16:49.510Z,100666.63
2023-01-08T03:19:56.432Z,100672.53
2023-01-08T03:22:58.406Z,100671.56
2023-01-08T03:26:00.441Z,100656.94
2023-01-08T03:29:03.408Z,100667.09
2023-01-08T03:32:04.400Z,100667.28
2023-01-08T03:35:06.408Z,100653.00
2023-01-08T03:38:11.400Z,100662.97
2023-01-08T03:41:15.402Z,100656.88
2023-01-08T03:44:15.420Z,100645.69
2023-01-08T03:47:16.427Z,100638.19
2023-01-08T03:50:18.450Z,100650.00
2023-01-08T03:53:18.433Z,100641.56
2023-01-08T03:56:18.414Z,100641.47
2023-01-08T03:59:18.402Z,100636.44
2023-01-08T04:02:18.543Z,100629.72
2023-01-08T04:05:18.409Z,100627.28
2023-01-08T04:08:18.442Z,100626.63
2023-01-08T04:11:18.448Z,100621.62
2023-01-08T04:14:18.430Z,100625.69
2023-01-08T04:17:19.458Z,100623.72
2023-01-08T04:20:19.410Z,100632.16
2023-01-08T04:23:19.410Z,100607.22
2023-01-08T04:26:20.400Z,100613.87
2023-01-08T04:29:20.457Z,100634.91
2023-01-08T04:32:20.450Z,100633.87
2023-01-08T04:35:20.429Z,100624.16
2023-01-08T04:38:20.411Z,100629.25
2023-01-08T04:41:20.383Z,100633.44
2023-01-08T04:44:20.459Z,100634.22
2023-01-08T04:47:20.380Z,100641.00
2023-01-08T04:50:20.406Z,100633.97
2023-01-08T04:53:20.416Z,100633.06
2023-01-08T04:56:24.437Z,100634.66
2023-01-08T04:59:24.402Z,100630.31
2023-01-08T05:02:24.567Z,100629.47
2023-01-08T05:05:24.437Z,100632.88
2023-01-08T05:08:24.395Z,100625.00
2023-01-08T05:11:17.441Z,100624.19
2023-01-08T05:14:06.389Z,100620.88
2023-01-08T05:17:06.390Z,100622.56
2023-01-08T05:20:06.427Z,100616.66
2023-01-08T05:23:06.429Z,100632.91
2023-01-08T05:26:06.413Z,100628.84
2023-01-08T05:29:06.410Z,100626.47
2023-01-08T05:32:06.393Z,100625.69
2023-01-08T05:35:06.403Z,100618.81
2023-01-08T05:38:06.401Z,100594.38
2023-01-08T05:41:06.439Z,100601.09
2023-01-08T05:44:06.444Z,100604.47
2023-01-08T05:47:09.416Z,100605.47
2023-01-08T05:50:09.435Z,100600.47
2023-01-08T05:53:09.395Z,100605.50
2023-01-08T05:56:14.438Z,100631.25
2023-01-08T05:59:14.436Z,100633.72
2023-01-08T06:02:14.412Z,100626.66
2023-01-08T06:05:14.388Z,100633.34
2023-01-08T06:08:14.405Z,100626.25
2023-01-08T06:11:19.433Z,100621.72
2023-01-08T06:14:19.413Z,100627.66
2023-01-08T06:17:19.387Z,100635.31
2023-01-08T06:20:19.391Z,100631.69
2023-01-08T06:23:19.405Z,100626.44
2023-01-08T06:26:19.445Z,100632.38
2023-01-08T06:29:19.448Z,100630.63
2023-01-08T06:32:19.420Z,100625.62
2023-01-08T06:35:19.399Z,100624.78
2023-01-08T06:38:19.508Z,100605.38
2023-01-08T06:41:21.382Z,100652.19
2023-01-08T06:44:21.437Z,100656.47
2023-01-08T06:47:21.411Z,100625.00
2023-01-08T06:50:21.390Z,100645.03
2023-01-08T06:53:21.400Z,100659.66
2023-01-08T06:56:21.389Z,100665.56
2023-01-08T06:59:21.424Z,100656.88
2023-01-08T07:02:26.548Z,100662.81
2023-01-08T07:05:26.428Z,100670.44
2023-01-08T07:08:30.424Z,100683.25
2023-01-08T07:11:30.429Z,100665.97
2023-01-08T07:14:30.429Z,100677.87
2023-01-08T07:17:30.413Z,100676.03
2023-01-08T07:20:30.400Z,100675.84
2023-01-08T07:23:30.397Z,100676.59
2023-01-08T07:26:23.390Z,100672.13
2023-01-08T07:29:16.397Z,100680.00
2023-01-08T07:32:16.401Z,100685.13
2023-01-08T07:35:16.471Z,100684.28
2023-01-08T07:38:16.406Z,100686.00
2023-01-08T07:41:16.386Z,100687.66
2023-01-08T07:44:16.408Z,100684.94
2023-01-08T07:47:16.399Z,100688.31
2023-01-08T07:50:16.383Z,100686.50
2023-01-08T07:53:09.501Z,100670.03
2023-01-08T07:56:16.381Z,100678.72
2023-01-08T07:59:16.420Z,100675.00
2023-01-08T08:02:16.532Z,100665.34
2023-01-08T08:05:16.399Z,100667.72
2023-01-08T08:08:21.384Z,100687.44
2023-01-08T08:11:21.421Z,100688.47
2023-01-08T08:14:21.408Z,100687.81
2023-01-08T08:17:21.397Z,100666.84
2023-01-08T08:20:21.413Z,100678.06
2023-01-08T08:23:24.391Z,100681.66
2023-01-08T08:26:24.383Z,100684.00
2023-01-08T08:29:24.400Z,100686.75
2023-01-08T08:32:24.395Z,100680.75
2023-01-08T08:35:24.381Z,100676.38
2023-01-08T08:38:24.430Z,100695.13
2023-01-08T08:41:24.389Z,100677.75
2023-01-08T08:44:24.395Z,100683.78
2023-01-08T08:47:24.412Z,100703.53
2023-01-08T08:50:24.428Z,100693.84
2023-01-08T08:53:25.877Z,100709.28
2023-01-08T08:56:27.381Z,100672.56
2023-01-08T08:59:27.393Z,100696.44
2023-01-08T09:02:27.534Z,100696.22
2023-01-08T09:05:28.390Z,100683.06
2023-01-08T09:08:28.380Z,100670.81
2023-01-08T09:11:28.421Z,100685.44
2023-01-08T09:14:28.381Z,100671.53
2023-01-08T09:17:28.418Z,100666.28
2023-01-08T09:20:28.414Z,100664.37
2023-01-08T09:23:28.418Z,100653.00
2023-01-08T09:26:28.414Z,100661.50
2023-01-08T09:29:28.388Z,100651.97
2023-01-08T09:32:28.436Z,100657.00
2023-01-08T09:35:28.376Z,100641.69
2023-01-08T09:38:21.481Z,100645.50
2023-01-08T09:41:24.389Z,100665.22
2023-01-08T09:44:28.394Z,100652.12
2023-01-08T09:47:40.311Z,100654.50
2023-01-08T09:50:41.384Z,100649.16
2023-01-08T09:53:41.385Z,100644.81
2023-01-08T09:56:42.387Z,100612.66
2023-01-08T09:59:42.407Z,100638.53
2023-01-08T10:02:42.545Z,100635.97
2023-01-08T10:05:43.370Z,100634.31
2023-01-08T10:08:43.424Z,100611.16
2023-01-08T10:11:52.409Z,100632.06
2023-01-08T10:14:56.432Z,100625.75
2023-01-08T10:18:17.410Z,100624.19
2023-01-08T10:21:17.455Z,100589.84
2023-01-08T10:24:17.407Z,100615.12
2023-01-08T10:27:27.380Z,100614.19
2023-01-08T10:30:53.411Z,100614.75
2023-01-08T10:34:01.427Z,100600.13
2023-01-08T10:37:01.406Z,100584.97
2023-01-08T10:40:01.423Z,100591.62
2023-01-08T10:43:02.387Z,100593.03
2023-01-08T10:46:13.381Z,100576.00
2023-01-08T10:49:15.400Z,100590.28
2023-01-08T10:52:15.365Z,100584.97
2023-01-08T10:55:30.429Z,100573.03
2023-01-08T10:58:30.421Z,100590.47
2023-01-08T11:01:39.481Z,100580.94
2023-01-08T11:04:39.366Z,100581.59
2023-01-08T11:07:29.527Z,100577.00
2023-01-08T11:10:28.398Z,100572.44
2023-01-08T11:13:17.388Z,100567.84
2023-01-08T11:16:22.428Z,100566.16
2023-01-08T11:19:33.387Z,100560.81
2023-01-08T11:22:37.377Z,100561.38
2023-01-08T11:25:41.426Z,100556.78
2023-01-08T11:28:53.402Z,100556.78
2023-01-08T11:31:55.474Z,100552.28
2023-01-08T11:35:07.405Z,100553.91
2023-01-08T11:38:14.397Z,100550.28
2023-01-08T11:41:25.513Z,100545.72
2023-01-08T11:44:47.387Z,100541.22
2023-01-08T11:48:18.431Z,100536.88
2023-01-08T11:51:56.419Z,100539.13
2023-01-08T11:54:56.406Z,100531.87
2023-01-08T11:58:05.364Z,100535.25
2023-01-08T12:01:16.493Z,100537.69
2023-01-08T12:04:38.403Z,100534.06
2023-01-08T12:08:04.404Z,100527.75
2023-01-08T12:11:26.450Z,100518.97
2023-01-08T12:14:51.373Z,100514.38
2023-01-08T12:18:05.413Z,100501.34
2023-01-08T12:21:17.406Z,100498.37
2023-01-08T12:24:34.404Z,100500.06
2023-01-08T12:28:11.377Z,100503.50
2023-01-08T12:32:01.523Z,100494.72
2023-01-08T12:35:17.363Z,100497.94
2023-01-08T12:38:36.406Z,100493.38
2023-01-08T12:41:37.372Z,100485.34
2023-01-08T12:44:40.434Z,100468.13
2023-01-08T12:47:43.413Z,100486.44
2023-01-08T12:50:46.381Z,100477.66
2023-01-08T12:53:54.401Z,100482.06
2023-01-08T12:56:59.423Z,100473.97
2023-01-08T13:00:18.397Z,100473.81
2023-01-08T13:03:21.410Z,100458.97
2023-01-08T13:06:28.366Z,100451.88
2023-01-08T13:09:36.367Z,100450.00
2023-01-08T13:12:47.406Z,100447.19
2023-01-08T13:15:48.362Z,100443.69
2023-01-08T13:18:48.421Z,100444.44
2023-01-08T13:21:50.362Z,100447.06
2023-01-08T13:24:51.422Z,100439.00
2023-01-08T13:27:51.402Z,100430.75
2023-01-08T13:30:55.377Z,100446.59
2023-01-08T13:33:55.355Z,100446.59
2023-01-08T13:36:55.384Z,100447.34
2023-01-08T13:39:55.407Z,100445.59
2023-01-08T13:42:55.374Z,100449.94
2023-01-08T13:45:55.379Z,100443.81
2023-01-08T13:49:37.415Z,100447.25
2023-01-08T13:52:41.374Z,100440.28
2023-01-08T13:55:41.380Z,100437.69
2023-01-08T13:58:50.362Z,100439.44
2023-01-08T14:01:50.473Z,100437.00
2023-01-08T14:04:50.384Z,100434.50
2023-01-08T14:07:52.361Z,100429.28
2023-01-08T14:10:52.363Z,100428.53
2023-01-08T14:13:52.417Z,100407.09
2023-01-08T14:16:52.429Z,100418.12
2023-01-08T14:19:54.403Z,100425.09
2023-01-08T14:22:55.433Z,100416.53
2023-01-08T14:25:55.407Z,100410.50
2023-01-08T14:29:04.416Z,100415.69
2023-01-08T14:32:07.380Z,100398.81
2023-01-08T14:35:07.371Z,100411.16
2023-01-08T14:38:07.404Z,100409.41
2023-01-08T14:41:16.388Z,100406.78
2023-01-08T14:44:20.906Z,100405.03
2023-01-08T14:47:30.410Z,100408.50
2023-01-08T14:50:43.389Z,100410.34
2023-01-08T14:53:49.381Z,100406.78
2023-01-08T14:56:49.366Z,100402.44
2023-01-08T14:59:49.371Z,100406.78
2023-01-08T15:02:49.453Z,100401.59
2023-01-08T15:05:49.377Z,100374.25
2023-01-08T15:08:57.576Z,100379.78
2023-01-08T15:12:13.407Z,100373.78
2023-01-08T15:15:32.362Z,100380.63
2023-01-08T15:18:32.395Z,100370.34
2023-01-08T15:21:33.374Z,100361.00
2023-01-08T15:24:48.383Z,100375.28
2023-01-08T15:27:48.377Z,100373.53
2023-01-08T15:30:53.389Z,100376.37
2023-01-08T15:33:53.375Z,100376.13
2023-01-08T15:36:54.362Z,100370.94
2023-01-08T15:39:54.413Z,100370.94
2023-01-08T15:43:12.378Z,100376.28
2023-01-08T15:46:12.397Z,100369.06
2023-01-08T15:49:12.399Z,100368.06
2023-01-08T15:52:12.373Z,100340.88
2023-01-08T15:55:15.403Z,100367.62
2023-01-08T15:58:15.393Z,100365.87
2023-01-08T16:01:15.496Z,100361.34
2023-01-08T16:04:15.397Z,100356.31
2023-01-08T16:07:15.388Z,100352.75
2023-01-08T16:10:15.359Z,100345.97
2023-01-08T16:13:15.464Z,100355.37
2023-01-08T16:16:20.382Z,100348.03
2023-01-08T16:19:20.400Z,100354.06
2023-01-08T16:22:20.361Z,100357.50
2023-01-08T16:25:21.435Z,100349.13
2023-01-08T16:28:21.397Z,100350.97
2023-01-08T16:31:21.426Z,100352.78
2023-01-08T16:34:21.384Z,100352.78
2023-01-08T16:37:21.369Z,100350.28
2023-01-08T16:40:21.406Z,100341.47
2023-01-08T16:43:23.360Z,100345.06
2023-01-08T16:46:25.370Z,100340.72
2023-01-08T16:49:25.401Z,100338.87
2023-01-08T16:52:25.395Z,100332.59
2023-01-08T16:55:25.362Z,100334.09
2023-01-08T16:58:25.417Z,100330.50
2023-01-08T17:01:25.412Z,100321.81
2023-01-08T17:04:25.374Z,100319.09
2023-01-08T17:07:27.396Z,100321.53
2023-01-08T17:10:27.331Z,100319.72
2023-01-08T17:13:27.424Z,100318.78
2023-01-08T17:16:28.450Z,100316.19
2023-01-08T17:19:29.375Z,100284.34
2023-01-08T17:22:29.361Z,100313.91
2023-01-08T17:25:29.353Z,100310.69
2023-01-08T17:28:31.381Z,100314.22
2023-01-08T17:31:32.389Z,100319.44
2023-01-08T17:34:32.368Z,100320.06
2023-01-08T17:37:32.396Z,100315.88
2023-01-08T17:40:32.378Z,100320.41
2023-01-08T17:43:32.373Z,100300.97
2023-01-08T17:46:32.367Z,100309.09
2023-01-08T17:49:32.351Z,100302.88
2023-01-08T17:52:32.391Z,100296.03
2023-01-08T17:55:32.349Z,100290.25
2023-01-08T17:58:32.398Z,100292.25
2023-01-08T18:01:32.459Z,100292.09
2023-01-08T18:04:32.386Z,100293.00
2023-01-08T18:07:32.368Z,100287.72
2023-01-08T18:10:32.410Z,100282.97
2023-01-08T18:13:32.398Z,100290.44
2023-01-08T18:16:32.427Z,100278.34
2023-01-08T18:19:32.390Z,100279.94
2023-01-08T18:22:32.373Z,100259.38
2023-01-08T18:25:32.402Z,100273.97
2023-01-08T18:28:32.364Z,100274.78
2023-01-08T18:31:32.452Z,100266.16
2023-01-08T18:34:32.383Z,100270.34
2023-01-08T18:37:32.388Z,100265.88
2023-01-08T18:40:32.353Z,100267.44
2023-01-08T18:43:32.397Z,100268.97
2023-01-08T18:46:32.404Z,100262.06
2023-01-08T18:49:34.409Z,100262.25
2023-01-08T18:52:35.362Z,100261.41
2023-01-08T18:55:35.365Z,100246.91
2023-01-08T18:58:35.394Z,100257.34
2023-01-08T19:01:35.532Z,100245.13
2023-01-08T19:04:35.363Z,100246.25
2023-01-08T19:07:35.345Z,100244.37
2023-01-08T19:10:35.373Z,100235.66
2023-01-08T19:13:35.345Z,100239.19
2023-01-08T19:16:35.413Z,100235.84
2023-01-08T19:19:35.375Z,100242.53
2023-01-08T19:22:35.416Z,100241.78
2023-01-08T19:25:35.345Z,100240.34
2023-01-08T19:28:35.399Z,100240.41
2023-01-08T19:31:35.403Z,100239.94
2023-01-08T19:34:35.371Z,100231.88
2023-01-08T19:37:35.357Z,100231.41
2023-01-08T19:40:35.367Z,100239.03
2023-01-08T19:43:50.360Z,100238.84
2023-01-08T19:46:50.461Z,100239.12
2023-01-08T19:49:54.365Z,100233.09
2023-01-08T19:52:54.346Z,100225.09
2023-01-08T19:55:54.364Z,100222.56
2023-01-08T19:58:54.398Z,100225.81
2023-01-08T20:01:54.498Z,100215.19
2023-01-08T20:04:54.349Z,100216.47
2023-01-08T20:07:54.391Z,100215.38
2023-01-08T20:10:54.349Z,100194.16
2023-01-08T20:13:54.413Z,100214.50
2023-01-08T20:16:54.373Z,100217.38
2023-01-08T20:19:49.466Z,100208.12
2023-01-08T20:22:37.379Z,100204.31
2023-01-08T20:25:37.390Z,100218.28
2023-01-08T20:28:37.393Z,100218.56
2023-01-08T20:31:40.409Z,100207.09
2023-01-08T20:34:40.366Z,100204.41
2023-01-08T20:37:41.353Z,100202.91
2023-01-08T20:40:41.401Z,100201.25
2023-01-08T20:43:41.356Z,100195.00
2023-01-08T20:46:42.424Z,100200.94
2023-01-08T20:49:42.351Z,100198.34
2023-01-08T20:52:45.370Z,100187.28
2023-01-08T20:55:45.382Z,100169.06
2023-01-08T20:58:49.370Z,100177.38
2023-01-08T21:01:49.435Z,100165.31
2023-01-08T21:04:50.358Z,100177.75
2023-01-08T21:07:50.392Z,100170.81
2023-01-08T21:10:50.356Z,100169.59
2023-01-08T21:13:50.400Z,100165.50
2023-01-08T21:16:51.348Z,100159.53
2023-01-08T21:19:51.379Z,100137.22
2023-01-08T21:22:51.355Z,100140.56
2023-01-08T21:25:51.362Z,100147.34
2023-01-08T21:28:52.362Z,100144.38
2023-01-08T21:31:52.410Z,100143.34
2023-01-08T21:34:52.402Z,100147.09
2023-01-08T21:37:52.361Z,100144.94
2023-01-08T21:40:52.388Z,100127.66
2023-01-08T21:44:10.361Z,100141.50
2023-01-08T21:47:14.398Z,100135.28
2023-01-08T21:50:14.354Z,100123.81
2023-01-08T21:53:34.183Z,100125.94
2023-01-08T21:56:35.340Z,100118.22
2023-01-08T21:59:35.357Z,100100.25
2023-01-08T22:02:36.381Z,100129.44
2023-01-08T22:05:36.387Z,100125.69
2023-01-08T22:08:37.356Z,100131.25
2023-01-08T22:11:37.379Z,100122.69
2023-01-08T22:14:37.393Z,100130.00
2023-01-08T22:17:38.363Z,100118.47
2023-01-08T22:20:38.389Z,100116.00
2023-01-08T22:23:38.406Z,100097.59
2023-01-08T22:26:39.413Z,100100.88
2023-01-08T22:29:39.365Z,100098.47
2023-01-08T22:32:39.372Z,100102.75
2023-01-08T22:35:39.341Z,100104.22
2023-01-08T22:38:39.362Z,100097.13
2023-01-08T22:41:39.388Z,100073.50
2023-01-08T22:44:39.399Z,100088.97
2023-01-08T22:47:39.367Z,100089.91
2023-01-08T22:50:39.361Z,100096.69
2023-01-08T22:53:39.375Z,100090.16
2023-01-08T22:56:40.395Z,100090.38
2023-01-08T22:59:40.373Z,100089.91
2023-01-08T23:02:40.411Z,100074.66
2023-01-08T23:05:40.357Z,100050.97
2023-01-08T23:08:40.373Z,100062.03
2023-01-08T23:11:40.387Z,100070.94
2023-01-08T23:14:40.333Z,100070.63
2023-01-08T23:17:51.551Z,100066.63
2023-01-08T23:20:51.375Z,100067.63
2023-01-08T23:23:51.396Z,100063.56
2023-01-08T23:26:51.342Z,100059.78
2023-01-08T23:29:51.398Z,100062.53
2023-01-08T23:32:51.386Z,100052.62
2023-01-08T23:35:51.403Z,100045.97
2023-01-08T23:38:51.360Z,100039.50
2023-01-08T23:41:51.371Z,100024.91
2023-01-08T23:44:51.397Z,100032.19
2023-01-08T23:47:51.390Z,100028.22
2023-01-08T23:50:51.401Z,100018.84
2023-01-08T23:53:51.346Z,100000.56
2023-01-08T23:56:51.401Z,100011.34
2023-01-08T23:59:51.393Z,100004.25
